createdAt,value
2023-01-11T00:01:11.100Z,0.70
2023-01-11T00:04:13.716Z,0.80
2023-01-11T00:07:16.164Z,0.70
2023-01-11T00:10:19.348Z,0.70
2023-01-11T00:13:23.172Z,0.60
2023-01-11T00:16:26.929Z,0.50
2023-01-11T00:19:30.380Z,0.60
2023-01-11T00:22:33.602Z,0.70
2023-01-11T00:25:35.998Z,0.60
2023-01-11T00:28:38.616Z,0.60
2023-01-11T00:31:40.829Z,0.60
2023-01-11T00:34:44.382Z,0.70
2023-01-11T00:37:46.922Z,0.60
2023-01-11T00:40:49.353Z,0.70
2023-01-11T00:43:52.628Z,0.70
2023-01-11T00:46:55.906Z,0.60
2023-01-11T00:49:58.283Z,0.70
2023-01-11T00:53:01.092Z,0.50
2023-01-11T00:56:03.893Z,0.70
2023-01-11T00:59:06.453Z,0.57
2023-01-11T01:02:09.066Z,0.70
2023-01-11T01:05:11.732Z,0.68
2023-01-11T01:08:14.725Z,0.60
2023-01-11T01:11:17.620Z,0.55
2023-01-11T01:14:20.279Z,0.55
2023-01-11T01:17:22.393Z,0.70
2023-01-11T01:20:25.085Z,0.80
2023-01-11T01:23:27.842Z,0.70
2023-01-11T01:26:30.298Z,0.70
2023-01-11T01:29:33.153Z,0.60
2023-01-11T01:32:36.888Z,0.82
2023-01-11T01:35:39.878Z,0.63
2023-01-11T01:38:42.058Z,0.65
2023-01-11T01:41:44.995Z,0.65
2023-01-11T01:44:47.995Z,0.60
2023-01-11T01:47:50.697Z,0.63
2023-01-11T01:50:53.369Z,0.85
2023-01-11T01:53:55.913Z,0.80
2023-01-11T01:56:58.716Z,0.68
2023-01-11T02:00:01.561Z,0.50
2023-01-11T02:03:04.475Z,0.80
2023-01-11T02:06:06.460Z,0.73
2023-01-11T02:09:09.497Z,0.50
2023-01-11T02:12:12.840Z,0.60
2023-01-11T02:15:15.737Z,0.65
2023-01-11T02:18:18.415Z,0.70
2023-01-11T02:21:21.121Z,0.60
2023-01-11T02:24:23.631Z,0.60
2023-01-11T02:27:26.579Z,0.70
2023-01-11T02:30:29.310Z,0.60
2023-01-11T02:33:31.934Z,0.50
2023-01-11T02:36:34.893Z,0.60
2023-01-11T02:39:37.340Z,0.70
2023-01-11T02:42:39.620Z,0.65
2023-01-11T02:45:41.854Z,0.60
2023-01-11T02:48:44.854Z,0.70
2023-01-11T02:51:48.131Z,0.50
2023-01-11T02:54:51.224Z,0.60
2023-01-11T02:57:54.494Z,0.50
2023-01-11T03:00:57.670Z,0.50
2023-01-11T03:04:00.105Z,0.68
2023-01-11T03:07:02.327Z,0.50
2023-01-11T03:10:04.790Z,0.43
2023-01-11T03:13:07.457Z,0.40
2023-01-11T03:16:10.312Z,0.50
2023-01-11T03:19:12.464Z,0.50
2023-01-11T03:22:15.259Z,0.57
2023-01-11T03:25:18.677Z,0.50
2023-01-11T03:28:21.149Z,0.57
2023-01-11T03:31:24.021Z,0.55
2023-01-11T03:34:26.851Z,0.40
2023-01-11T03:37:29.626Z,0.45
2023-01-11T03:40:32.362Z,0.50
2023-01-11T03:43:35.308Z,0.50
2023-01-11T03:46:38.197Z,0.43
2023-01-11T03:49:41.210Z,0.45
2023-01-11T03:52:44.213Z,0.63
2023-01-11T03:55:46.991Z,0.40
2023-01-11T03:58:49.168Z,0.45
2023-01-11T04:01:51.617Z,0.60
2023-01-11T04:04:54.434Z,0.60
2023-01-11T04:07:56.545Z,0.60
2023-01-11T04:10:59.118Z,0.50
2023-01-11T04:14:01.513Z,0.60
2023-01-11T04:17:04.529Z,0.50
2023-01-11T04:20:06.994Z,0.60
2023-01-11T04:23:09.260Z,0.40
2023-01-11T04:26:11.209Z,0.65
2023-01-11T04:29:13.525Z,0.60
2023-01-11T04:32:16.125Z,0.50
2023-01-11T04:35:18.665Z,0.50
2023-01-11T04:38:21.660Z,0.50
2023-01-11T04:41:24.535Z,0.60
2023-01-11T04:44:27.221Z,0.47
2023-01-11T04:47:30.064Z,0.60
2023-01-11T04:50:32.292Z,0.60
2023-01-11T04:53:34.909Z,0.45
2023-01-11T04:56:37.120Z,0.70
2023-01-11T04:59:39.877Z,0.60
2023-01-11T05:02:42.842Z,0.60
2023-01-11T05:05:45.726Z,0.50
2023-01-11T05:08:48.376Z,0.68
2023-01-11T05:11:51.002Z,0.57
2023-01-11T05:14:53.181Z,0.60
2023-01-11T05:17:55.688Z,0.60
2023-01-11T05:20:58.519Z,0.50
2023-01-11T05:24:01.491Z,0.65
2023-01-11T05:27:04.562Z,0.50
2023-01-11T05:30:07.532Z,0.40
2023-01-11T05:33:10.200Z,0.50
2023-01-11T05:36:13.172Z,0.50
2023-01-11T05:39:15.943Z,0.98
2023-01-11T05:42:18.634Z,0.80
2023-01-11T05:45:21.506Z,0.70
2023-01-11T05:48:25.000Z,0.80
2023-01-11T05:51:27.144Z,0.77
2023-01-11T05:54:29.705Z,0.73
2023-01-11T05:57:32.373Z,0.60
2023-01-11T06:00:36.143Z,0.80
2023-01-11T06:03:38.529Z,0.70
2023-01-11T06:06:41.573Z,0.63
2023-01-11T06:09:44.804Z,0.82
2023-01-11T06:12:47.752Z,0.90
2023-01-11T06:15:49.941Z,0.70
2023-01-11T06:18:52.109Z,0.68
2023-01-11T06:21:54.755Z,0.70
2023-01-11T06:24:57.420Z,0.70
2023-01-11T06:27:59.595Z,0.70
2023-01-11T06:31:01.840Z,0.50
2023-01-11T06:34:04.559Z,0.40
2023-01-11T06:37:07.705Z,0.75
2023-01-11T06:40:10.561Z,0.60
2023-01-11T06:43:13.522Z,0.90
2023-01-11T06:46:16.600Z,0.45
2023-01-11T06:49:19.308Z,0.57
2023-01-11T06:52:21.418Z,0.60
2023-01-11T06:55:23.663Z,0.65
2023-01-11T06:58:26.283Z,0.68
2023-01-11T07:01:29.117Z,0.60
2023-01-11T07:04:31.798Z,0.50
2023-01-11T07:07:34.357Z,0.60
2023-01-11T07:10:36.964Z,0.70
2023-01-11T07:13:39.783Z,0.70
2023-01-11T07:16:42.238Z,0.70
2023-01-11T07:19:44.745Z,0.57
2023-01-11T07:22:47.729Z,0.60
2023-01-11T07:25:50.950Z,0.70
2023-01-11T07:28:54.092Z,0.65
2023-01-11T07:31:57.601Z,0.80
2023-01-11T07:35:00.556Z,0.60
2023-01-11T07:38:03.361Z,0.70
2023-01-11T07:41:06.184Z,0.80
2023-01-11T07:44:08.662Z,0.70
2023-01-11T07:47:11.358Z,0.63
2023-01-11T07:50:13.462Z,0.65
2023-01-11T07:53:15.979Z,0.60
2023-01-11T07:56:18.754Z,0.70
2023-01-11T07:59:21.382Z,0.68
2023-01-11T08:02:24.335Z,0.73
2023-01-11T08:05:27.773Z,0.60
2023-01-11T08:08:29.996Z,0.90
2023-01-11T08:11:32.578Z,0.70
2023-01-11T08:14:35.131Z,0.80
2023-01-11T08:17:37.772Z,0.70
2023-01-11T08:20:40.339Z,0.70
2023-01-11T08:23:42.523Z,0.80
2023-01-11T08:26:45.680Z,0.88
2023-01-11T08:29:48.631Z,0.85
2023-01-11T08:32:51.359Z,1.20
2023-01-11T08:35:53.894Z,1.05
2023-01-11T08:38:56.051Z,0.80
2023-01-11T08:41:58.711Z,1.10
2023-01-11T08:45:01.497Z,1.00
2023-01-11T08:48:05.178Z,0.77
2023-01-11T08:51:07.438Z,0.90
2023-01-11T08:54:10.208Z,0.80
2023-01-11T08:57:12.633Z,0.75
2023-01-11T09:00:15.083Z,0.70
2023-01-11T09:03:18.339Z,1.00
2023-01-11T09:06:21.682Z,0.90
2023-01-11T09:09:25.396Z,0.90
2023-01-11T09:12:28.173Z,0.90
2023-01-11T09:15:30.570Z,0.80
2023-01-11T09:18:33.258Z,0.80
2023-01-11T09:21:36.276Z,1.15
2023-01-11T09:24:39.045Z,1.00
2023-01-11T09:27:41.925Z,1.02
2023-01-11T09:30:44.180Z,0.70
2023-01-11T09:33:46.901Z,1.08
2023-01-11T09:36:49.234Z,1.13
2023-01-11T09:39:51.853Z,0.90
2023-01-11T09:42:54.438Z,0.90
2023-01-11T09:45:57.736Z,0.98
2023-01-11T09:49:00.969Z,0.90
2023-01-11T09:52:04.287Z,1.02
2023-01-11T09:55:07.682Z,0.93
2023-01-11T09:58:10.437Z,0.82
2023-01-11T10:01:13.128Z,0.70
2023-01-11T10:04:15.767Z,0.90
2023-01-11T10:07:18.304Z,0.80
2023-01-11T10:18:40.396Z,0.80
2023-01-11T10:20:24.273Z,0.93
2023-01-11T10:23:27.229Z,1.02
2023-01-11T10:26:30.424Z,0.80
2023-01-11T10:29:33.536Z,0.93
2023-01-11T10:32:36.614Z,0.90
2023-01-11T10:35:39.949Z,0.85
2023-01-11T10:38:42.775Z,1.05
2023-01-11T10:41:46.141Z,0.75
2023-01-11T10:44:49.075Z,1.10
2023-01-11T10:47:51.747Z,1.00
2023-01-11T10:50:53.743Z,0.90
2023-01-11T10:53:56.476Z,1.15
2023-01-11T10:57:02.797Z,1.05
2023-01-11T11:00:05.609Z,1.02
2023-01-11T11:03:07.738Z,1.10
2023-01-11T11:06:10.414Z,0.82
2023-01-11T11:09:12.650Z,1.23
2023-01-11T11:12:15.237Z,1.17
2023-01-11T11:15:17.935Z,1.10
2023-01-11T11:18:20.573Z,0.90
2023-01-11T11:21:23.385Z,1.10
2023-01-11T11:24:25.712Z,0.90
2023-01-11T11:27:28.750Z,0.90
2023-01-11T11:30:31.316Z,1.00
2023-01-11T11:33:33.626Z,1.02
2023-01-11T11:36:36.351Z,1.20
2023-01-11T11:39:39.002Z,0.98
2023-01-11T11:42:41.453Z,1.40
2023-01-11T11:45:44.331Z,1.23
2023-01-11T11:48:46.981Z,1.30
2023-01-11T11:51:50.232Z,1.20
2023-01-11T11:54:52.657Z,1.00
2023-01-11T11:57:54.885Z,1.10
2023-01-11T12:00:57.437Z,1.20
2023-01-11T12:04:00.124Z,1.15
2023-01-11T12:07:02.900Z,1.27
2023-01-11T12:10:05.777Z,1.10
2023-01-11T12:13:08.593Z,0.90
2023-01-11T12:16:11.237Z,1.10
2023-01-11T12:19:13.567Z,1.48
2023-01-11T12:22:16.537Z,1.42
2023-01-11T12:25:19.870Z,0.93
2023-01-11T12:28:23.151Z,1.10
2023-01-11T12:31:26.155Z,1.00
2023-01-11T12:34:28.530Z,1.30
2023-01-11T12:37:30.966Z,1.02
2023-01-11T12:40:33.252Z,1.17
2023-01-11T12:43:36.232Z,1.40
2023-01-11T12:46:39.217Z,1.05
2023-01-11T12:49:42.168Z,1.27
2023-01-11T12:52:45.329Z,1.10
2023-01-11T12:55:47.561Z,1.00
2023-01-11T12:58:50.273Z,1.23
2023-01-11T13:01:52.809Z,1.52
2023-01-11T13:04:55.445Z,0.85
2023-01-11T13:07:58.373Z,1.20
2023-01-11T13:11:00.892Z,1.83
2023-01-11T13:14:03.991Z,1.35
2023-01-11T13:17:06.815Z,1.25
2023-01-11T13:20:09.539Z,1.30
2023-01-11T13:23:11.813Z,1.25
2023-01-11T13:26:14.699Z,1.52
2023-01-11T13:29:17.511Z,1.25
2023-01-11T13:32:20.563Z,1.48
2023-01-11T13:35:24.033Z,1.42
2023-01-11T13:38:26.249Z,1.63
2023-01-11T13:41:28.915Z,1.25
2023-01-11T13:44:31.160Z,1.30
2023-01-11T13:47:33.783Z,1.73
2023-01-11T13:50:36.641Z,1.65
2023-01-11T13:53:39.709Z,1.40
2023-01-11T13:56:42.787Z,1.50
2023-01-11T13:59:45.642Z,1.40
2023-01-11T14:02:48.150Z,1.50
2023-01-11T14:05:50.861Z,1.30
2023-01-11T14:08:53.145Z,1.48
2023-01-11T14:11:55.619Z,1.48
2023-01-11T14:14:57.789Z,1.33
2023-01-11T14:18:00.481Z,1.20
2023-01-11T14:21:02.897Z,1.38
2023-01-11T14:24:06.097Z,1.42
2023-01-11T14:27:09.472Z,1.23
2023-01-11T14:30:12.302Z,1.10
2023-01-11T14:33:14.918Z,1.30
2023-01-11T14:36:17.750Z,1.58
2023-01-11T14:39:19.993Z,1.45
2023-01-11T14:42:31.307Z,1.40
2023-01-11T14:45:36.008Z,1.70
2023-01-11T14:48:38.730Z,1.60
2023-01-11T14:51:41.930Z,1.20
2023-01-11T14:54:45.471Z,1.33
2023-01-11T14:57:48.420Z,1.33
2023-01-11T15:00:51.385Z,1.40
2023-01-11T15:03:54.106Z,1.33
2023-01-11T15:06:56.964Z,1.80
2023-01-11T15:09:59.995Z,1.38
2023-01-11T15:13:03.295Z,1.20
2023-01-11T15:16:06.307Z,1.40
2023-01-11T15:19:08.911Z,1.60
2023-01-11T15:22:11.873Z,1.23
2023-01-11T15:25:14.699Z,1.40
2023-01-11T15:28:17.094Z,1.38
2023-01-11T15:31:19.156Z,1.23
2023-01-11T15:34:22.117Z,1.50
2023-01-11T15:37:24.654Z,1.08
2023-01-11T15:40:26.673Z,1.30
2023-01-11T15:43:29.793Z,1.50
2023-01-11T15:46:32.901Z,1.40
2023-01-11T15:49:36.358Z,1.30
2023-01-11T15:52:38.921Z,1.25
2023-01-11T15:55:41.339Z,1.10
2023-01-11T15:58:44.527Z,1.35
2023-01-11T16:01:47.371Z,0.98
2023-01-11T16:04:50.515Z,1.13
2023-01-11T16:07:53.883Z,1.10
2023-01-11T16:10:56.197Z,1.00
2023-01-11T16:13:58.888Z,1.27
2023-01-11T16:17:01.134Z,1.00
2023-01-11T16:20:03.774Z,1.30
2023-01-11T16:23:06.403Z,1.20
2023-01-11T16:26:09.685Z,0.80
2023-01-11T16:29:12.950Z,1.02
2023-01-11T16:32:16.174Z,1.45
2023-01-11T16:35:18.755Z,1.10
2023-01-11T16:38:21.440Z,1.20
2023-01-11T16:41:23.846Z,1.40
2023-01-11T16:44:26.134Z,1.50
2023-01-11T16:47:28.700Z,1.30
2023-01-11T16:50:31.351Z,1.65
2023-01-11T16:53:34.260Z,1.30
2023-01-11T16:56:37.161Z,1.20
2023-01-11T16:59:40.114Z,1.17
2023-01-11T17:02:42.375Z,1.13
2023-01-11T17:05:44.630Z,1.10
2023-01-11T17:08:47.542Z,1.20
2023-01-11T17:11:50.381Z,1.48
2023-01-11T17:14:52.852Z,1.15
2023-01-11T17:17:55.989Z,1.17
2023-01-11T17:20:58.992Z,1.58
2023-01-11T17:24:01.883Z,1.30
2023-01-11T17:27:04.629Z,1.40
2023-01-11T17:30:07.938Z,1.35
2023-01-11T17:33:10.976Z,1.30
2023-01-11T17:36:13.571Z,1.15
2023-01-11T17:39:16.132Z,1.00
2023-01-11T17:42:19.250Z,1.40
2023-01-11T17:45:21.729Z,1.27
2023-01-11T17:48:24.278Z,1.15
2023-01-11T17:51:26.955Z,1.60
2023-01-11T17:54:29.616Z,1.27
2023-01-11T17:57:32.535Z,1.25
2023-01-11T18:00:35.004Z,1.20
2023-01-11T18:03:37.217Z,1.20
2023-01-11T18:06:40.113Z,1.52
2023-01-11T18:09:43.042Z,1.20
2023-01-11T18:12:46.459Z,1.20
2023-01-11T18:15:49.086Z,1.30
2023-01-11T18:18:51.268Z,1.20
2023-01-11T18:21:53.917Z,1.50
2023-01-11T18:24:56.626Z,1.40
2023-01-11T18:27:59.355Z,1.38
2023-01-11T18:31:02.251Z,1.10
2023-01-11T18:34:05.302Z,0.90
2023-01-11T18:37:07.903Z,1.42
2023-01-11T18:40:10.511Z,1.20
2023-01-11T18:43:12.706Z,1.10
2023-01-11T18:46:15.634Z,1.40
2023-01-11T18:49:18.661Z,1.25
2023-01-11T18:52:21.548Z,1.20
2023-01-11T18:55:24.526Z,1.50
2023-01-11T18:58:27.315Z,1.40
2023-01-11T19:01:31.749Z,1.27
2023-01-11T19:04:35.807Z,1.15
2023-01-11T19:07:38.601Z,1.10
2023-01-11T19:10:41.415Z,1.38
2023-01-11T19:13:46.622Z,1.20
2023-01-11T19:16:49.594Z,1.30
2023-01-11T19:19:51.830Z,1.48
2023-01-11T19:22:54.584Z,1.40
2023-01-11T19:25:56.837Z,1.13
2023-01-11T19:28:59.480Z,1.27
2023-01-11T19:32:02.098Z,1.38
2023-01-11T19:35:04.459Z,1.40
2023-01-11T19:38:07.578Z,1.30
2023-01-11T19:41:11.102Z,1.20
2023-01-11T19:44:13.659Z,1.05
2023-01-11T19:47:16.398Z,1.45
2023-01-11T19:50:18.648Z,1.42
2023-01-11T19:53:21.604Z,1.10
2023-01-11T19:56:24.077Z,1.50
2023-01-11T19:59:26.446Z,1.58
2023-01-11T20:02:29.268Z,1.33
2023-01-11T20:05:32.250Z,1.63
2023-01-11T20:08:35.269Z,1.30
2023-01-11T20:11:38.630Z,1.40
2023-01-11T20:14:41.645Z,1.35
2023-01-11T20:17:44.477Z,1.48
2023-01-11T20:20:47.395Z,1.33
2023-01-11T20:23:50.287Z,1.05
2023-01-11T20:26:52.767Z,1.25
2023-01-11T20:29:55.384Z,1.30
2023-01-11T20:32:58.425Z,1.83
2023-01-11T20:36:01.250Z,1.40
2023-01-11T20:39:04.959Z,1.17
2023-01-11T20:42:08.010Z,1.40
2023-01-11T20:45:10.523Z,1.30
2023-01-11T20:48:13.124Z,1.20
2023-01-11T20:51:15.600Z,1.35
2023-01-11T20:54:18.829Z,1.48
2023-01-11T20:57:22.124Z,1.08
2023-01-11T21:00:24.949Z,1.42
2023-01-11T21:03:27.459Z,1.35
2023-01-11T21:06:29.432Z,1.20
2023-01-11T21:09:32.074Z,1.27
2023-01-11T21:12:34.502Z,1.20
2023-01-11T21:15:37.097Z,1.35
2023-01-11T21:18:40.233Z,1.40
2023-01-11T21:21:43.907Z,1.30
2023-01-11T21:24:47.436Z,0.90
2023-01-11T21:27:50.934Z,1.17
2023-01-11T21:30:53.946Z,1.40
2023-01-11T21:33:57.380Z,1.40
2023-01-11T21:36:59.738Z,1.10
2023-01-11T21:40:02.228Z,1.33
2023-01-11T21:43:05.060Z,1.10
2023-01-11T21:46:08.817Z,1.33
2023-01-11T21:49:11.723Z,1.58
2023-01-11T21:52:14.123Z,1.17
2023-01-11T21:55:17.491Z,1.23
2023-01-11T21:58:19.756Z,1.23
2023-01-11T22:01:22.371Z,1.30
2023-01-11T22:04:25.636Z,1.30
2023-01-11T22:07:28.503Z,1.25
2023-01-11T22:10:31.346Z,1.30
2023-01-11T22:13:33.999Z,1.15
2023-01-11T22:16:37.336Z,1.23
2023-01-11T22:19:40.788Z,1.30
2023-01-11T22:22:43.738Z,1.10
2023-01-11T22:25:45.980Z,1.27
2023-01-11T22:28:48.656Z,1.20
2023-01-11T22:31:51.075Z,1.02
2023-01-11T22:34:53.971Z,1.23
2023-01-11T22:37:56.625Z,1.23
2023-01-11T22:40:59.275Z,1.45
2023-01-11T22:44:01.571Z,1.15
2023-01-11T22:47:04.487Z,1.13
2023-01-11T22:50:08.407Z,1.10
2023-01-11T22:53:11.232Z,1.40
2023-01-11T22:56:13.881Z,0.95
2023-01-11T22:59:16.891Z,1.05
2023-01-11T23:02:19.726Z,1.15
2023-01-11T23:05:22.409Z,1.20
2023-01-11T23:08:25.050Z,1.30
2023-01-11T23:11:27.792Z,1.20
2023-01-11T23:14:30.483Z,1.23
2023-01-11T23:17:33.198Z,1.23
2023-01-11T23:20:35.932Z,1.20
2023-01-11T23:23:38.650Z,1.25
2023-01-11T23:26:41.238Z,1.15
2023-01-11T23:29:43.866Z,1.00
2023-01-11T23:32:46.447Z,1.17
2023-01-11T23:35:48.636Z,1.40
2023-01-11T23:38:51.613Z,1.17
2023-01-11T23:41:53.997Z,1.13
2023-01-11T23:44:56.573Z,1.00
2023-01-11T23:47:59.800Z,1.17
2023-01-11T23:51:02.786Z,1.25
2023-01-11T23:54:05.028Z,1.20
2023-01-11T23:57:07.663Z,0.90
